EZS91GN EDDH-LFSB
Flight info
| Callsign | EZS91GN |
|---|---|
| Flight time | N/A |
| Altitude | 35000 |
| Route | IDEKO7G IDEKO N850 NIE DCT OTMON/N0444F340 DCT SWALM DCT OMOGI/N0445F350 T721 SUNEG T715 PABLA DCT STR STR8K |
| Aircraft | A320/M-SDE3FGHIRWY/LB1 |
Departure
| Time | 2026-04-22 13:35 |
|---|---|
| Airport | Hamburg Helmut Schmidt Airport (EDDH) |
Arrival
| Time | N/A |
|---|---|
| Airport | EuroAirport Basel–Mulhouse–Freiburg (LFSB) |
| Time | Latitude | Longitude | Altitude | Speed | Heading |
|---|---|---|---|---|---|
| 2026-04-22 13:23 | 53.62838 | 10.00205 | 51 ft | 0 kts | 61° |
| 2026-04-22 13:29 | 53.62832 | 10.00187 | 51 ft | 3 kts | 57° |
| 2026-04-22 13:29 | 53.62820 | 10.00160 | 47 ft | 3 kts | 44° |
| 2026-04-22 13:30 | 53.62805 | 10.00140 | 51 ft | 3 kts | 21° |
| 2026-04-22 13:30 | 53.62788 | 10.00134 | 51 ft | 2 kts | 340° |
| 2026-04-22 13:30 | 53.62781 | 10.00140 | 47 ft | 1 kts | 333° |
| 2026-04-22 13:30 | 53.62780 | 10.00141 | 47 ft | 0 kts | 333° |
| 2026-04-22 13:33 | 53.62780 | 10.00140 | 47 ft | 1 kts | 333° |
| 2026-04-22 13:33 | 53.62810 | 10.00114 | 50 ft | 7 kts | 333° |
| 2026-04-22 13:33 | 53.62852 | 10.00068 | 51 ft | 8 kts | 313° |
| 2026-04-22 13:33 | 53.62850 | 9.99980 | 49 ft | 9 kts | 241° |
| 2026-04-22 13:34 | 53.62846 | 9.99966 | 51 ft | 0 kts | 241° |
| 2026-04-22 13:34 | 53.62845 | 9.99965 | 51 ft | 1 kts | 241° |
| 2026-04-22 13:34 | 53.62826 | 9.99905 | 53 ft | 10 kts | 242° |
| 2026-04-22 13:34 | 53.62831 | 9.99774 | 52 ft | 14 kts | 325° |
| 2026-04-22 13:35 | 53.63019 | 9.99611 | 51 ft | 62 kts | 332° |
| 2026-04-22 13:35 | 53.63602 | 9.99108 | 49 ft | 123 kts | 333° |
| 2026-04-22 13:35 | 53.64528 | 9.98309 | 98 ft | 166 kts | 333° |
| 2026-04-22 13:35 | 53.65546 | 9.97446 | 681 ft | 166 kts | 333° |
| 2026-04-22 13:36 | 53.66575 | 9.96572 | 1436 ft | 167 kts | 333° |
| 2026-04-22 13:36 | 53.67682 | 9.95625 | 1775 ft | 192 kts | 333° |
| 2026-04-22 13:36 | 53.68914 | 9.94572 | 2499 ft | 199 kts | 334° |
| 2026-04-22 13:36 | 53.70153 | 9.93525 | 3297 ft | 203 kts | 334° |
| 2026-04-22 13:37 | 53.71277 | 9.92056 | 3938 ft | 210 kts | 304° |
| 2026-04-22 13:37 | 53.71615 | 9.89607 | 4521 ft | 231 kts | 265° |
| 2026-04-22 13:37 | 53.71106 | 9.86872 | 4912 ft | 258 kts | 252° |
| 2026-04-22 13:37 | 53.70461 | 9.83955 | 5556 ft | 270 kts | 253° |
| 2026-04-22 13:38 | 53.69822 | 9.80938 | 6415 ft | 275 kts | 253° |
| 2026-04-22 13:38 | 53.68560 | 9.74735 | 8087 ft | 283 kts | 254° |
| 2026-04-22 13:38 | 53.67932 | 9.71560 | 8906 ft | 287 kts | 254° |
| 2026-04-22 13:39 | 53.67300 | 9.68338 | 9731 ft | 291 kts | 254° |
| 2026-04-22 13:39 | 53.66658 | 9.65073 | 10517 ft | 296 kts | 252° |
| 2026-04-22 13:39 | 53.65709 | 9.61941 | 11154 ft | 309 kts | 236° |
| 2026-04-22 13:39 | 53.64154 | 9.59245 | 11378 ft | 335 kts | 216° |
| 2026-04-22 13:40 | 53.62000 | 9.57453 | 11626 ft | 356 kts | 195° |
| 2026-04-22 13:40 | 53.59525 | 9.56815 | 12199 ft | 364 kts | 185° |
| 2026-04-22 13:40 | 53.56995 | 9.56351 | 12902 ft | 368 kts | 186° |
| 2026-04-22 13:40 | 53.54436 | 9.55852 | 13596 ft | 372 kts | 186° |
| 2026-04-22 13:41 | 53.51845 | 9.55331 | 14276 ft | 377 kts | 186° |
| 2026-04-22 13:41 | 53.49224 | 9.54799 | 14877 ft | 381 kts | 186° |
| 2026-04-22 13:41 | 53.46612 | 9.54269 | 15484 ft | 385 kts | 186° |
| 2026-04-22 13:41 | 53.43901 | 9.53726 | 16097 ft | 389 kts | 186° |
| 2026-04-22 13:42 | 53.41202 | 9.53190 | 16698 ft | 393 kts | 186° |
| 2026-04-22 13:42 | 53.38510 | 9.52657 | 17290 ft | 397 kts | 186° |
| 2026-04-22 13:42 | 53.35719 | 9.52110 | 17900 ft | 400 kts | 186° |
| 2026-04-22 13:42 | 53.32937 | 9.51564 | 18490 ft | 404 kts | 186° |
| 2026-04-22 13:43 | 53.30135 | 9.51016 | 19033 ft | 408 kts | 186° |
| 2026-04-22 13:43 | 53.27304 | 9.50466 | 19572 ft | 411 kts | 186° |
| 2026-04-22 13:43 | 53.24491 | 9.49918 | 20108 ft | 414 kts | 186° |
| 2026-04-22 13:43 | 53.21619 | 9.49361 | 20655 ft | 416 kts | 185° |
| 2026-04-22 13:44 | 53.18731 | 9.48803 | 21195 ft | 419 kts | 185° |
| 2026-04-22 13:44 | 53.15822 | 9.48241 | 21728 ft | 422 kts | 185° |
| 2026-04-22 13:44 | 53.12891 | 9.47677 | 22243 ft | 425 kts | 185° |
| 2026-04-22 13:44 | 53.09946 | 9.47102 | 22737 ft | 428 kts | 185° |
| 2026-04-22 13:45 | 53.06980 | 9.46519 | 23225 ft | 431 kts | 185° |
| 2026-04-22 13:45 | 53.03991 | 9.45935 | 23709 ft | 433 kts | 185° |
| 2026-04-22 13:45 | 53.00983 | 9.45353 | 24136 ft | 436 kts | 185° |
| 2026-04-22 13:45 | 52.97960 | 9.44762 | 24524 ft | 438 kts | 185° |
| 2026-04-22 13:46 | 52.94924 | 9.44136 | 24904 ft | 441 kts | 186° |
| 2026-04-22 13:46 | 52.91876 | 9.43484 | 25276 ft | 443 kts | 186° |
| 2026-04-22 13:46 | 52.88815 | 9.42815 | 25643 ft | 445 kts | 186° |
| 2026-04-22 13:46 | 52.85743 | 9.42139 | 25987 ft | 447 kts | 186° |
| 2026-04-22 13:47 | 52.82641 | 9.41462 | 26340 ft | 450 kts | 186° |
| 2026-04-22 13:47 | 52.79537 | 9.40794 | 26674 ft | 452 kts | 186° |
| 2026-04-22 13:47 | 52.76412 | 9.40127 | 27024 ft | 454 kts | 185° |
| 2026-04-22 13:47 | 52.73265 | 9.39456 | 27361 ft | 456 kts | 185° |
| 2026-04-22 13:48 | 52.70106 | 9.38787 | 27693 ft | 458 kts | 185° |
| 2026-04-22 13:48 | 52.66940 | 9.38122 | 28017 ft | 460 kts | 185° |
| 2026-04-22 13:48 | 52.63790 | 9.37469 | 28334 ft | 462 kts | 185° |
| 2026-04-22 13:48 | 52.60579 | 9.37166 | 28625 ft | 462 kts | 178° |
| 2026-04-22 13:49 | 52.57349 | 9.37101 | 28922 ft | 464 kts | 178° |
| 2026-04-22 13:49 | 52.54111 | 9.37035 | 29211 ft | 466 kts | 178° |
| 2026-04-22 13:49 | 52.50859 | 9.36972 | 29488 ft | 468 kts | 178° |
| 2026-04-22 13:49 | 52.47592 | 9.36904 | 29750 ft | 470 kts | 178° |
| 2026-04-22 13:50 | 52.44320 | 9.36832 | 30007 ft | 472 kts | 178° |
| 2026-04-22 13:50 | 52.41033 | 9.36756 | 30263 ft | 473 kts | 178° |
| 2026-04-22 13:50 | 52.37736 | 9.36680 | 30512 ft | 475 kts | 178° |
| 2026-04-22 13:50 | 52.34431 | 9.36605 | 30781 ft | 474 kts | 178° |
| 2026-04-22 13:51 | 52.31133 | 9.36535 | 31056 ft | 474 kts | 178° |
| 2026-04-22 13:51 | 52.27834 | 9.36465 | 31334 ft | 474 kts | 178° |
| 2026-04-22 13:51 | 52.24542 | 9.36397 | 31614 ft | 473 kts | 178° |
| 2026-04-22 13:51 | 52.21246 | 9.36332 | 31909 ft | 473 kts | 178° |
| 2026-04-22 13:52 | 52.17958 | 9.36271 | 32198 ft | 472 kts | 178° |
| 2026-04-22 13:52 | 52.14675 | 9.36209 | 32485 ft | 472 kts | 178° |
| 2026-04-22 13:52 | 52.11388 | 9.36144 | 32746 ft | 472 kts | 179° |
| 2026-04-22 13:52 | 52.08109 | 9.36070 | 33019 ft | 472 kts | 179° |
| 2026-04-22 13:53 | 52.04821 | 9.35993 | 33309 ft | 471 kts | 179° |
| 2026-04-22 13:53 | 52.01584 | 9.35916 | 33584 ft | 471 kts | 179° |
| 2026-04-22 13:53 | 51.98313 | 9.35843 | 33867 ft | 470 kts | 179° |
| 2026-04-22 13:53 | 51.95035 | 9.35776 | 34161 ft | 470 kts | 179° |
| 2026-04-22 13:54 | 51.91722 | 9.35714 | 34437 ft | 470 kts | 179° |
| 2026-04-22 13:54 | 51.88455 | 9.35652 | 34658 ft | 470 kts | 179° |
| 2026-04-22 13:54 | 51.85192 | 9.35588 | 34884 ft | 470 kts | 179° |
| 2026-04-22 13:54 | 51.81965 | 9.35523 | 35102 ft | 470 kts | 179° |
| 2026-04-22 13:55 | 51.78653 | 9.35457 | 35293 ft | 470 kts | 179° |
| 2026-04-22 13:55 | 51.75386 | 9.35390 | 35351 ft | 470 kts | 179° |
| 2026-04-22 13:55 | 51.68887 | 9.35250 | 35352 ft | 470 kts | 179° |
| 2026-04-22 13:56 | 51.62333 | 9.35113 | 35350 ft | 471 kts | 179° |
| 2026-04-22 13:56 | 51.55773 | 9.34978 | 35353 ft | 471 kts | 179° |
| 2026-04-22 13:57 | 51.49205 | 9.34850 | 35356 ft | 472 kts | 179° |
| 2026-04-22 13:57 | 51.42642 | 9.34720 | 35356 ft | 472 kts | 179° |
| 2026-04-22 13:58 | 51.36070 | 9.34587 | 35356 ft | 472 kts | 179° |
| 2026-04-22 13:58 | 51.29502 | 9.34393 | 35359 ft | 473 kts | 183° |
| 2026-04-22 13:59 | 51.22978 | 9.32919 | 35355 ft | 473 kts | 188° |
| 2026-04-22 13:59 | 51.16507 | 9.31334 | 35356 ft | 473 kts | 188° |
| 2026-04-22 14:00 | 51.09990 | 9.29756 | 35353 ft | 474 kts | 188° |
| 2026-04-22 14:00 | 51.03474 | 9.28176 | 35354 ft | 474 kts | 188° |
| 2026-04-22 14:01 | 50.96952 | 9.26600 | 35362 ft | 474 kts | 188° |
| 2026-04-22 14:01 | 50.90427 | 9.25029 | 35349 ft | 474 kts | 188° |
| 2026-04-22 14:02 | 50.83910 | 9.23463 | 35346 ft | 474 kts | 188° |
| 2026-04-22 14:02 | 50.77385 | 9.21908 | 35333 ft | 474 kts | 188° |
| 2026-04-22 14:03 | 50.70857 | 9.20354 | 35334 ft | 474 kts | 188° |
| 2026-04-22 14:03 | 50.64331 | 9.18935 | 35330 ft | 474 kts | 186° |
| 2026-04-22 14:04 | 50.57791 | 9.17627 | 35329 ft | 474 kts | 186° |
| 2026-04-22 14:04 | 50.51244 | 9.16310 | 35336 ft | 474 kts | 187° |
| 2026-04-22 14:05 | 50.44700 | 9.14972 | 35328 ft | 475 kts | 187° |
| 2026-04-22 14:06 | 50.35979 | 9.13158 | 35331 ft | 475 kts | 187° |
| 2026-04-22 14:06 | 50.29436 | 9.11802 | 35318 ft | 474 kts | 187° |
| 2026-04-22 14:07 | 50.21823 | 9.10253 | 35314 ft | 474 kts | 187° |
| 2026-04-22 14:07 | 50.16385 | 9.09146 | 35311 ft | 474 kts | 187° |
| 2026-04-22 14:08 | 50.09839 | 9.07816 | 35306 ft | 474 kts | 187° |
| 2026-04-22 14:08 | 50.03296 | 9.06500 | 35302 ft | 474 kts | 187° |
| 2026-04-22 14:09 | 49.96764 | 9.05179 | 35301 ft | 473 kts | 187° |
| 2026-04-22 14:09 | 49.90230 | 9.03855 | 35296 ft | 473 kts | 187° |
| 2026-04-22 14:10 | 49.83691 | 9.02537 | 35286 ft | 473 kts | 187° |
| 2026-04-22 14:10 | 49.77154 | 9.01230 | 35290 ft | 474 kts | 187° |
| 2026-04-22 14:11 | 49.70612 | 8.99920 | 35288 ft | 474 kts | 187° |
| 2026-04-22 14:11 | 49.64069 | 8.98596 | 35291 ft | 474 kts | 188° |
| 2026-04-22 14:12 | 49.57554 | 8.96894 | 35279 ft | 474 kts | 191° |
| 2026-04-22 14:12 | 49.51068 | 8.94970 | 35285 ft | 475 kts | 192° |
| 2026-04-22 14:13 | 49.44574 | 8.93103 | 35277 ft | 475 kts | 191° |
| 2026-04-22 14:13 | 49.38067 | 8.91327 | 35274 ft | 475 kts | 191° |
| 2026-04-22 14:14 | 49.31549 | 8.89589 | 35271 ft | 476 kts | 191° |
| 2026-04-22 14:14 | 49.25069 | 8.87823 | 35261 ft | 475 kts | 194° |
| 2026-04-22 14:15 | 49.18958 | 8.84215 | 35264 ft | 470 kts | 213° |
| 2026-04-22 14:15 | 49.13822 | 8.78163 | 35267 ft | 465 kts | 225° |
| 2026-04-22 14:16 | 49.08999 | 8.71576 | 35261 ft | 466 kts | 225° |
| 2026-04-22 14:16 | 49.04153 | 8.65006 | 35261 ft | 466 kts | 225° |
| 2026-04-22 14:17 | 48.99302 | 8.58452 | 35256 ft | 466 kts | 224° |
| 2026-04-22 14:17 | 48.94223 | 8.52280 | 35243 ft | 468 kts | 220° |
| 2026-04-22 14:18 | 48.88955 | 8.46483 | 35251 ft | 468 kts | 219° |
| 2026-04-22 14:18 | 48.83696 | 8.40707 | 35242 ft | 468 kts | 219° |
| 2026-04-22 14:19 | 48.78915 | 8.34156 | 35237 ft | 460 kts | 235° |
| 2026-04-22 14:19 | 48.75579 | 8.26031 | 35241 ft | 452 kts | 246° |
| 2026-04-22 14:20 | 48.71058 | 8.13458 | 34474 ft | 455 kts | 246° |
| 2026-04-22 14:20 | 48.69525 | 8.09219 | 33356 ft | 461 kts | 245° |
| 2026-04-22 14:20 | 48.67982 | 8.04964 | 32383 ft | 461 kts | 245° |
| 2026-04-22 14:21 | 48.64881 | 7.96433 | 30507 ft | 463 kts | 244° |
| 2026-04-22 14:21 | 48.63341 | 7.92207 | 29837 ft | 456 kts | 244° |
| 2026-04-22 14:22 | 48.60316 | 7.83920 | 28521 ft | 444 kts | 244° |
| 2026-04-22 14:22 | 48.58833 | 7.79858 | 27874 ft | 439 kts | 244° |
| 2026-04-22 14:22 | 48.55912 | 7.71867 | 26632 ft | 430 kts | 244° |
| 2026-04-22 14:23 | 48.54471 | 7.67928 | 26016 ft | 427 kts | 244° |
| 2026-04-22 14:23 | 48.52998 | 7.64060 | 25413 ft | 425 kts | 239° |
| 2026-04-22 14:23 | 48.51172 | 7.60563 | 24788 ft | 425 kts | 229° |
| 2026-04-22 14:23 | 48.48963 | 7.57612 | 24226 ft | 424 kts | 218° |
| 2026-04-22 14:24 | 48.46457 | 7.55286 | 23638 ft | 423 kts | 207° |
| 2026-04-22 14:24 | 48.43743 | 7.53625 | 23077 ft | 420 kts | 200° |
| 2026-04-22 14:24 | 48.40996 | 7.52191 | 22566 ft | 415 kts | 199° |
| 2026-04-22 14:24 | 48.38285 | 7.50774 | 22078 ft | 410 kts | 199° |
| 2026-04-22 14:25 | 48.35607 | 7.49373 | 21593 ft | 406 kts | 199° |
| 2026-04-22 14:25 | 48.32949 | 7.47979 | 21136 ft | 402 kts | 199° |
| 2026-04-22 14:25 | 48.30320 | 7.46600 | 20671 ft | 398 kts | 199° |
| 2026-04-22 14:25 | 48.27754 | 7.45260 | 20221 ft | 394 kts | 199° |
| 2026-04-22 14:26 | 48.25174 | 7.43917 | 19756 ft | 391 kts | 199° |
| 2026-04-22 14:26 | 48.22581 | 7.42570 | 19205 ft | 397 kts | 199° |
| 2026-04-22 14:26 | 48.19965 | 7.41214 | 18596 ft | 398 kts | 199° |
| 2026-04-22 14:26 | 48.17347 | 7.39857 | 17931 ft | 399 kts | 199° |
| 2026-04-22 14:27 | 48.14755 | 7.38508 | 17613 ft | 384 kts | 199° |
| 2026-04-22 14:27 | 48.12309 | 7.37234 | 17476 ft | 359 kts | 199° |
| 2026-04-22 14:27 | 48.10011 | 7.36037 | 17080 ft | 344 kts | 199° |
| 2026-04-22 14:27 | 48.07783 | 7.34881 | 16531 ft | 335 kts | 199° |
| 2026-04-22 14:28 | 48.05589 | 7.33750 | 15862 ft | 332 kts | 198° |
| 2026-04-22 14:28 | 48.03415 | 7.32631 | 15197 ft | 330 kts | 198° |
| 2026-04-22 14:28 | 48.01250 | 7.31517 | 14552 ft | 327 kts | 198° |
| 2026-04-22 14:28 | 47.99101 | 7.30501 | 14010 ft | 320 kts | 188° |
| 2026-04-22 14:29 | 47.96920 | 7.30376 | 13405 ft | 310 kts | 169° |
| 2026-04-22 14:29 | 47.94863 | 7.31199 | 12730 ft | 305 kts | 160° |
| 2026-04-22 14:29 | 47.92852 | 7.32172 | 12083 ft | 302 kts | 159° |
| 2026-04-22 14:29 | 47.90868 | 7.33138 | 11449 ft | 298 kts | 159° |
| 2026-04-22 14:30 | 47.88905 | 7.34097 | 10734 ft | 297 kts | 159° |
| 2026-04-22 14:30 | 47.86939 | 7.35058 | 9961 ft | 298 kts | 158° |
| 2026-04-22 14:30 | 47.84964 | 7.36022 | 9118 ft | 298 kts | 158° |
| 2026-04-22 14:30 | 47.83659 | 7.36657 | 8570 ft | 297 kts | 159° |